PILOTS ONLINE: 298    ATC ONLINE: 48

KCDC

Cedar City Regional Airport

Location

IATA CDC
City Cedar City
Country  United States
Latitude 37° 42' 3" N
Longitude 113° 5' 56" W
Elevation 5622 ft
Type Medium Airport

Map

Weather

METAR
2014/09/23 01:53
KCDC 230153Z AUTO 21005KT 10SM CLR 18/04 A3018 RMK AO2 SLP170 T01830044
TAF
2014/09/22 18:42
TAF KCDC 221738Z 2218/2318 22011KT P6SM SCT090 
     FM230100 VRB05KT P6SM SKC

Runways

02/20 8653 ft / 150 ft
08/26 4822 ft / 60 ft

Outbound flights

Callsign Flying to Pilot ATD/STD ETA Aircraft

Inbound flights

Callsign Flying from Pilot ATD ETA Aircraft